sensor_id;sensor_type;location;lat;lon;timestamp;temperature;humidity
59282;DHT22;45054;52.062;10.010;2023-03-03T00:01:24;0.20;99.90
59282;DHT22;45054;52.062;10.010;2023-03-03T00:03:50;0.20;99.90
59282;DHT22;45054;52.062;10.010;2023-03-03T00:06:15;0.10;99.90
59282;DHT22;45054;52.062;10.010;2023-03-03T00:08:41;0.20;99.90
59282;DHT22;45054;52.062;10.010;2023-03-03T00:11:06;0.10;99.90
59282;DHT22;45054;52.062;10.010;2023-03-03T00:13:36;0.10;99.90
59282;DHT22;45054;52.062;10.010;2023-03-03T00:16:09;0.10;99.90
59282;DHT22;45054;52.062;10.010;2023-03-03T00:18:36;0.10;99.90
59282;DHT22;45054;52.062;10.010;2023-03-03T00:21:02;0.00;99.90
59282;DHT22;45054;52.062;10.010;2023-03-03T00:23:29;0.00;99.90
59282;DHT22;45054;52.062;10.010;2023-03-03T00:25:55;0.10;99.90
59282;DHT22;45054;52.062;10.010;2023-03-03T00:28:24;0.10;99.90
59282;DHT22;45054;52.062;10.010;2023-03-03T00:30:52;0.10;99.90
59282;DHT22;45054;52.062;10.010;2023-03-03T00:33:24;0.10;99.90
59282;DHT22;45054;52.062;10.010;2023-03-03T00:35:50;0.20;99.90
59282;DHT22;45054;52.062;10.010;2023-03-03T00:38:15;0.30;99.90
59282;DHT22;45054;52.062;10.010;2023-03-03T00:40:41;0.30;99.90
59282;DHT22;45054;52.062;10.010;2023-03-03T00:43:11;0.30;99.90
59282;DHT22;45054;52.062;10.010;2023-03-03T00:45:38;0.30;99.90
59282;DHT22;45054;52.062;10.010;2023-03-03T00:48:14;0.10;99.90
59282;DHT22;45054;52.062;10.010;2023-03-03T00:50:41;0.10;99.90
59282;DHT22;45054;52.062;10.010;2023-03-03T00:53:10;0.10;99.90
59282;DHT22;45054;52.062;10.010;2023-03-03T00:55:35;0.10;99.90
59282;DHT22;45054;52.062;10.010;2023-03-03T00:58:01;0.10;99.90
59282;DHT22;45054;52.062;10.010;2023-03-03T01:00:27;0.10;99.90
59282;DHT22;45054;52.062;10.010;2023-03-03T01:02:52;0.10;99.90
59282;DHT22;45054;52.062;10.010;2023-03-03T01:05:19;0.10;99.90
59282;DHT22;45054;52.062;10.010;2023-03-03T01:07:45;0.10;99.90
59282;DHT22;45054;52.062;10.010;2023-03-03T01:10:10;0.10;99.90
59282;DHT22;45054;52.062;10.010;2023-03-03T01:12:36;0.00;99.90
59282;DHT22;45054;52.062;10.010;2023-03-03T01:15:01;0.00;99.90
59282;DHT22;45054;52.062;10.010;2023-03-03T01:17:27;-0.10;99.90
59282;DHT22;45054;52.062;10.010;2023-03-03T01:19:53;-0.10;99.90
59282;DHT22;45054;52.062;10.010;2023-03-03T01:22:19;-0.30;99.90
59282;DHT22;45054;52.062;10.010;2023-03-03T01:24:45;-0.30;99.90
59282;DHT22;45054;52.062;10.010;2023-03-03T01:27:10;-0.30;99.90
59282;DHT22;45054;52.062;10.010;2023-03-03T01:29:36;-0.40;99.90
59282;DHT22;45054;52.062;10.010;2023-03-03T01:32:01;-0.40;99.90
59282;DHT22;45054;52.062;10.010;2023-03-03T01:34:27;-0.40;99.90
59282;DHT22;45054;52.062;10.010;2023-03-03T01:36:52;-0.40;99.90
59282;DHT22;45054;52.062;10.010;2023-03-03T01:39:19;-0.30;99.90
59282;DHT22;45054;52.062;10.010;2023-03-03T01:41:44;-0.40;99.90
59282;DHT22;45054;52.062;10.010;2023-03-03T01:44:10;-0.40;99.90
59282;DHT22;45054;52.062;10.010;2023-03-03T01:46:40;-0.30;99.90
59282;DHT22;45054;52.062;10.010;2023-03-03T01:49:10;-0.40;99.90
59282;DHT22;45054;52.062;10.010;2023-03-03T01:51:37;-0.40;99.90
59282;DHT22;45054;52.062;10.010;2023-03-03T01:54:09;-0.40;99.90
59282;DHT22;45054;52.062;10.010;2023-03-03T01:56:37;-0.40;99.90
59282;DHT22;45054;52.062;10.010;2023-03-03T01:59:04;-0.40;99.90
59282;DHT22;45054;52.062;10.010;2023-03-03T02:01:30;-0.30;99.90
59282;DHT22;45054;52.062;10.010;2023-03-03T02:03:55;-0.30;99.90
59282;DHT22;45054;52.062;10.010;2023-03-03T02:06:24;-0.30;99.90
59282;DHT22;45054;52.062;10.010;2023-03-03T02:08:52;-0.30;99.90
59282;DHT22;45054;52.062;10.010;2023-03-03T02:11:18;-0.20;99.90
59282;DHT22;45054;52.062;10.010;2023-03-03T02:13:45;-0.20;99.90
59282;DHT22;45054;52.062;10.010;2023-03-03T02:16:11;-0.10;99.90
59282;DHT22;45054;52.062;10.010;2023-03-03T02:18:36;-0.20;99.90
59282;DHT22;45054;52.062;10.010;2023-03-03T02:21:03;-0.30;99.90
59282;DHT22;45054;52.062;10.010;2023-03-03T02:23:30;-0.30;99.90
59282;DHT22;45054;52.062;10.010;2023-03-03T02:26:02;-0.40;99.90
59282;DHT22;45054;52.062;10.010;2023-03-03T02:28:30;-0.40;99.90
59282;DHT22;45054;52.062;10.010;2023-03-03T02:30:56;-0.30;99.90
59282;DHT22;45054;52.062;10.010;2023-03-03T02:33:22;-0.30;99.90
59282;DHT22;45054;52.062;10.010;2023-03-03T02:35:48;-0.30;99.90
59282;DHT22;45054;52.062;10.010;2023-03-03T02:38:16;-0.20;99.90
59282;DHT22;45054;52.062;10.010;2023-03-03T02:40:46;-0.40;99.90
59282;DHT22;45054;52.062;10.010;2023-03-03T02:43:15;-0.40;99.90
59282;DHT22;45054;52.062;10.010;2023-03-03T02:45:42;-0.40;99.90
59282;DHT22;45054;52.062;10.010;2023-03-03T02:48:07;-0.40;99.90
59282;DHT22;45054;52.062;10.010;2023-03-03T02:50:33;-0.30;99.90
59282;DHT22;45054;52.062;10.010;2023-03-03T02:52:58;-0.30;99.90
59282;DHT22;45054;52.062;10.010;2023-03-03T02:55:24;-0.40;99.90
59282;DHT22;45054;52.062;10.010;2023-03-03T02:57:49;-0.30;99.90
59282;DHT22;45054;52.062;10.010;2023-03-03T03:00:16;-0.30;99.90
59282;DHT22;45054;52.062;10.010;2023-03-03T03:02:42;-0.30;99.90
59282;DHT22;45054;52.062;10.010;2023-03-03T03:05:08;-0.30;99.90
59282;DHT22;45054;52.062;10.010;2023-03-03T03:07:33;-0.20;99.90
59282;DHT22;45054;52.062;10.010;2023-03-03T03:09:58;-0.10;99.90
59282;DHT22;45054;52.062;10.010;2023-03-03T03:12:24;-0.10;99.90
59282;DHT22;45054;52.062;10.010;2023-03-03T03:14:49;-0.10;99.90
59282;DHT22;45054;52.062;10.010;2023-03-03T03:17:16;-0.30;99.90
59282;DHT22;45054;52.062;10.010;2023-03-03T03:19:42;-0.30;99.90
59282;DHT22;45054;52.062;10.010;2023-03-03T03:22:07;-0.30;99.90
59282;DHT22;45054;52.062;10.010;2023-03-03T03:24:32;-0.20;99.90
59282;DHT22;45054;52.062;10.010;2023-03-03T03:26:58;-0.30;99.90
59282;DHT22;45054;52.062;10.010;2023-03-03T03:29:23;-0.30;99.90
59282;DHT22;45054;52.062;10.010;2023-03-03T03:31:49;-0.30;99.90
59282;DHT22;45054;52.062;10.010;2023-03-03T03:34:15;-0.40;99.90
59282;DHT22;45054;52.062;10.010;2023-03-03T03:36:41;-0.40;99.90
59282;DHT22;45054;52.062;10.010;2023-03-03T03:39:06;-0.40;99.90
59282;DHT22;45054;52.062;10.010;2023-03-03T03:41:32;-0.40;99.90
59282;DHT22;45054;52.062;10.010;2023-03-03T03:43:57;-0.40;99.90
59282;DHT22;45054;52.062;10.010;2023-03-03T03:46:22;-0.40;99.90
59282;DHT22;45054;52.062;10.010;2023-03-03T03:48:48;-0.50;99.90
59282;DHT22;45054;52.062;10.010;2023-03-03T03:51:15;-0.50;99.90
59282;DHT22;45054;52.062;10.010;2023-03-03T03:53:40;-0.50;99.90
59282;DHT22;45054;52.062;10.010;2023-03-03T03:56:06;-0.50;99.90
59282;DHT22;45054;52.062;10.010;2023-03-03T03:58:31;-0.50;99.90
59282;DHT22;45054;52.062;10.010;2023-03-03T04:01:00;-0.50;99.90
59282;DHT22;45054;52.062;10.010;2023-03-03T04:03:26;-0.50;99.90
59282;DHT22;45054;52.062;10.010;2023-03-03T04:05:51;-0.50;99.90
59282;DHT22;45054;52.062;10.010;2023-03-03T04:08:18;-0.50;99.90
59282;DHT22;45054;52.062;10.010;2023-03-03T04:10:44;-0.40;99.90
59282;DHT22;45054;52.062;10.010;2023-03-03T04:13:09;-0.50;99.90
59282;DHT22;45054;52.062;10.010;2023-03-03T04:15:35;-0.50;99.90
59282;DHT22;45054;52.062;10.010;2023-03-03T04:18:00;-0.50;99.90
59282;DHT22;45054;52.062;10.010;2023-03-03T04:20:25;-0.50;99.90
59282;DHT22;45054;52.062;10.010;2023-03-03T04:22:51;-0.60;99.90
59282;DHT22;45054;52.062;10.010;2023-03-03T04:25:18;-0.60;99.90
59282;DHT22;45054;52.062;10.010;2023-03-03T04:27:43;-0.50;99.90
59282;DHT22;45054;52.062;10.010;2023-03-03T04:30:10;-0.60;99.90
59282;DHT22;45054;52.062;10.010;2023-03-03T04:32:35;-0.60;99.90
59282;DHT22;45054;52.062;10.010;2023-03-03T04:35:01;-0.60;99.90
59282;DHT22;45054;52.062;10.010;2023-03-03T04:37:26;-0.60;99.90
59282;DHT22;45054;52.062;10.010;2023-03-03T04:39:52;-0.80;99.90
59282;DHT22;45054;52.062;10.010;2023-03-03T04:42:19;-0.80;99.90
59282;DHT22;45054;52.062;10.010;2023-03-03T04:44:44;-0.80;99.90
59282;DHT22;45054;52.062;10.010;2023-03-03T04:47:09;-0.80;99.90
59282;DHT22;45054;52.062;10.010;2023-03-03T04:49:35;-0.80;99.90
59282;DHT22;45054;52.062;10.010;2023-03-03T04:52:00;-0.70;99.90
59282;DHT22;45054;52.062;10.010;2023-03-03T04:54:26;-0.60;99.90
59282;DHT22;45054;52.062;10.010;2023-03-03T04:56:51;-0.60;99.90
59282;DHT22;45054;52.062;10.010;2023-03-03T04:59:18;-0.60;99.90
59282;DHT22;45054;52.062;10.010;2023-03-03T05:01:43;-0.60;99.90
59282;DHT22;45054;52.062;10.010;2023-03-03T05:04:09;-0.60;99.90
59282;DHT22;45054;52.062;10.010;2023-03-03T05:06:34;-0.50;99.90
59282;DHT22;45054;52.062;10.010;2023-03-03T05:09:00;-0.50;99.90
59282;DHT22;45054;52.062;10.010;2023-03-03T05:11:25;-0.50;99.90
59282;DHT22;45054;52.062;10.010;2023-03-03T05:13:51;-0.50;99.90
59282;DHT22;45054;52.062;10.010;2023-03-03T05:16:17;-0.50;99.90
59282;DHT22;45054;52.062;10.010;2023-03-03T05:18:43;-0.50;99.90
59282;DHT22;45054;52.062;10.010;2023-03-03T05:21:08;-0.60;99.90
59282;DHT22;45054;52.062;10.010;2023-03-03T05:23:34;-0.60;99.90
59282;DHT22;45054;52.062;10.010;2023-03-03T05:25:59;-0.70;99.90
59282;DHT22;45054;52.062;10.010;2023-03-03T05:28:24;-0.70;99.90
59282;DHT22;45054;52.062;10.010;2023-03-03T05:30:50;-0.60;99.90
59282;DHT22;45054;52.062;10.010;2023-03-03T05:33:17;-0.60;99.90
59282;DHT22;45054;52.062;10.010;2023-03-03T05:35:42;-0.60;99.90
59282;DHT22;45054;52.062;10.010;2023-03-03T05:38:08;-0.70;99.90
59282;DHT22;45054;52.062;10.010;2023-03-03T05:40:34;-0.60;99.90
59282;DHT22;45054;52.062;10.010;2023-03-03T05:42:59;-0.60;99.90
59282;DHT22;45054;52.062;10.010;2023-03-03T05:45:25;-0.60;99.90
59282;DHT22;45054;52.062;10.010;2023-03-03T05:47:50;-0.60;99.90
59282;DHT22;45054;52.062;10.010;2023-03-03T05:50:17;-0.60;99.90
59282;DHT22;45054;52.062;10.010;2023-03-03T05:52:43;-0.40;99.90
59282;DHT22;45054;52.062;10.010;2023-03-03T05:55:09;-0.50;99.90
59282;DHT22;45054;52.062;10.010;2023-03-03T05:57:34;-0.50;99.90
59282;DHT22;45054;52.062;10.010;2023-03-03T06:00:00;-0.40;99.90
59282;DHT22;45054;52.062;10.010;2023-03-03T06:02:25;-0.40;99.90
59282;DHT22;45054;52.062;10.010;2023-03-03T06:04:51;-0.40;99.90
59282;DHT22;45054;52.062;10.010;2023-03-03T06:07:17;-0.40;99.90
59282;DHT22;45054;52.062;10.010;2023-03-03T06:09:43;-0.30;99.90
59282;DHT22;45054;52.062;10.010;2023-03-03T06:12:08;-0.30;99.90
59282;DHT22;45054;52.062;10.010;2023-03-03T06:14:34;-0.30;99.90
59282;DHT22;45054;52.062;10.010;2023-03-03T06:16:59;-0.30;99.90
59282;DHT22;45054;52.062;10.010;2023-03-03T06:19:24;-0.40;99.90
59282;DHT22;45054;52.062;10.010;2023-03-03T06:21:50;-0.40;99.90
59282;DHT22;45054;52.062;10.010;2023-03-03T06:24:17;-0.40;99.90
59282;DHT22;45054;52.062;10.010;2023-03-03T06:26:42;-0.30;99.90
59282;DHT22;45054;52.062;10.010;2023-03-03T06:29:08;-0.30;99.90
59282;DHT22;45054;52.062;10.010;2023-03-03T06:31:33;-0.30;99.90
59282;DHT22;45054;52.062;10.010;2023-03-03T06:33:58;-0.30;99.90
59282;DHT22;45054;52.062;10.010;2023-03-03T06:36:24;-0.30;99.90
59282;DHT22;45054;52.062;10.010;2023-03-03T06:38:49;-0.20;99.90
59282;DHT22;45054;52.062;10.010;2023-03-03T06:41:16;-0.30;99.90
59282;DHT22;45054;52.062;10.010;2023-03-03T06:43:42;-0.40;99.90
59282;DHT22;45054;52.062;10.010;2023-03-03T06:46:07;-0.40;99.90
59282;DHT22;45054;52.062;10.010;2023-03-03T06:48:33;-0.30;99.90
59282;DHT22;45054;52.062;10.010;2023-03-03T06:50:58;-0.20;99.90
59282;DHT22;45054;52.062;10.010;2023-03-03T06:53:24;-0.20;99.90
59282;DHT22;45054;52.062;10.010;2023-03-03T06:55:49;-0.20;99.90
59282;DHT22;45054;52.062;10.010;2023-03-03T06:58:17;-0.10;99.90
59282;DHT22;45054;52.062;10.010;2023-03-03T07:00:44;-0.10;99.90
59282;DHT22;45054;52.062;10.010;2023-03-03T07:03:13;-0.10;99.90
59282;DHT22;45054;52.062;10.010;2023-03-03T07:05:39;-0.10;99.90
59282;DHT22;45054;52.062;10.010;2023-03-03T07:08:05;-0.10;99.90
59282;DHT22;45054;52.062;10.010;2023-03-03T07:10:31;-0.10;99.90
59282;DHT22;45054;52.062;10.010;2023-03-03T07:12:56;0.00;99.90
59282;DHT22;45054;52.062;10.010;2023-03-03T07:15:25;0.00;99.90
59282;DHT22;45054;52.062;10.010;2023-03-03T07:17:52;0.10;99.90
59282;DHT22;45054;52.062;10.010;2023-03-03T07:20:20;0.10;99.90
59282;DHT22;45054;52.062;10.010;2023-03-03T07:22:46;0.10;99.90
59282;DHT22;45054;52.062;10.010;2023-03-03T07:25:17;0.10;99.90
59282;DHT22;45054;52.062;10.010;2023-03-03T07:27:43;0.10;99.90
59282;DHT22;45054;52.062;10.010;2023-03-03T07:30:16;0.20;99.90
59282;DHT22;45054;52.062;10.010;2023-03-03T07:32:45;0.10;99.90
59282;DHT22;45054;52.062;10.010;2023-03-03T07:35:20;0.20;99.90
59282;DHT22;45054;52.062;10.010;2023-03-03T07:37:49;0.20;99.90
59282;DHT22;45054;52.062;10.010;2023-03-03T07:40:25;0.20;99.90
59282;DHT22;45054;52.062;10.010;2023-03-03T07:42:52;0.10;99.90
59282;DHT22;45054;52.062;10.010;2023-03-03T07:45:22;0.10;99.90
59282;DHT22;45054;52.062;10.010;2023-03-03T07:47:50;0.00;99.90
59282;DHT22;45054;52.062;10.010;2023-03-03T07:50:19;0.00;99.90
59282;DHT22;45054;52.062;10.010;2023-03-03T07:52:48;0.00;99.90
59282;DHT22;45054;52.062;10.010;2023-03-03T07:55:21;0.00;99.90
59282;DHT22;45054;52.062;10.010;2023-03-03T07:57:47;0.10;99.90
59282;DHT22;45054;52.062;10.010;2023-03-03T08:03:01;0.20;99.90
59282;DHT22;45054;52.062;10.010;2023-03-03T08:05:29;0.30;99.90
59282;DHT22;45054;52.062;10.010;2023-03-03T08:07:57;0.30;99.90
59282;DHT22;45054;52.062;10.010;2023-03-03T08:10:32;0.40;99.90
59282;DHT22;45054;52.062;10.010;2023-03-03T08:13:04;0.40;99.90
59282;DHT22;45054;52.062;10.010;2023-03-03T08:15:35;0.40;99.90
59282;DHT22;45054;52.062;10.010;2023-03-03T08:18:07;0.30;99.90
59282;DHT22;45054;52.062;10.010;2023-03-03T08:20:43;0.40;99.90
59282;DHT22;45054;52.062;10.010;2023-03-03T08:23:09;0.50;99.90
59282;DHT22;45054;52.062;10.010;2023-03-03T08:25:34;0.60;99.90
59282;DHT22;45054;52.062;10.010;2023-03-03T08:28:00;0.50;99.90
59282;DHT22;45054;52.062;10.010;2023-03-03T08:30:25;0.50;99.90
59282;DHT22;45054;52.062;10.010;2023-03-03T08:32:51;0.50;99.90
59282;DHT22;45054;52.062;10.010;2023-03-03T08:35:17;0.60;99.90
59282;DHT22;45054;52.062;10.010;2023-03-03T08:37:43;0.60;99.90
59282;DHT22;45054;52.062;10.010;2023-03-03T08:40:09;0.60;99.90
59282;DHT22;45054;52.062;10.010;2023-03-03T08:42:34;0.60;99.90
59282;DHT22;45054;52.062;10.010;2023-03-03T08:45:00;0.60;99.90
59282;DHT22;45054;52.062;10.010;2023-03-03T08:47:25;0.60;99.90
59282;DHT22;45054;52.062;10.010;2023-03-03T08:49:51;0.70;99.90
59282;DHT22;45054;52.062;10.010;2023-03-03T08:52:17;0.80;99.90
59282;DHT22;45054;52.062;10.010;2023-03-03T08:54:43;0.80;99.90
59282;DHT22;45054;52.062;10.010;2023-03-03T08:57:08;0.70;99.90
59282;DHT22;45054;52.062;10.010;2023-03-03T08:59:34;0.70;99.90
59282;DHT22;45054;52.062;10.010;2023-03-03T09:01:59;0.80;99.90
59282;DHT22;45054;52.062;10.010;2023-03-03T09:04:25;0.80;99.90
59282;DHT22;45054;52.062;10.010;2023-03-03T09:06:50;0.90;99.90
59282;DHT22;45054;52.062;10.010;2023-03-03T09:09:17;1.00;99.90
59282;DHT22;45054;52.062;10.010;2023-03-03T09:11:42;1.20;99.90
59282;DHT22;45054;52.062;10.010;2023-03-03T09:14:09;1.20;99.90
59282;DHT22;45054;52.062;10.010;2023-03-03T09:16:36;1.30;99.90
59282;DHT22;45054;52.062;10.010;2023-03-03T09:19:02;1.30;99.90
59282;DHT22;45054;52.062;10.010;2023-03-03T09:21:31;1.40;99.90
59282;DHT22;45054;52.062;10.010;2023-03-03T09:23:58;1.40;99.90
59282;DHT22;45054;52.062;10.010;2023-03-03T09:26:26;1.30;99.90
59282;DHT22;45054;52.062;10.010;2023-03-03T09:28:53;1.20;99.90
59282;DHT22;45054;52.062;10.010;2023-03-03T09:31:21;1.20;99.90
59282;DHT22;45054;52.062;10.010;2023-03-03T09:33:48;1.10;99.90
59282;DHT22;45054;52.062;10.010;2023-03-03T09:36:17;1.10;99.90
59282;DHT22;45054;52.062;10.010;2023-03-03T09:38:44;1.20;99.90
59282;DHT22;45054;52.062;10.010;2023-03-03T09:41:15;1.20;99.90
59282;DHT22;45054;52.062;10.010;2023-03-03T09:43:51;1.20;99.90
59282;DHT22;45054;52.062;10.010;2023-03-03T09:46:25;1.30;99.90
59282;DHT22;45054;52.062;10.010;2023-03-03T09:49:01;1.30;99.90
59282;DHT22;45054;52.062;10.010;2023-03-03T09:51:33;1.40;99.90
59282;DHT22;45054;52.062;10.010;2023-03-03T09:54:06;1.40;99.90
59282;DHT22;45054;52.062;10.010;2023-03-03T09:56:33;1.30;99.90
59282;DHT22;45054;52.062;10.010;2023-03-03T09:59:04;1.20;99.90
59282;DHT22;45054;52.062;10.010;2023-03-03T10:01:34;1.10;99.90
59282;DHT22;45054;52.062;10.010;2023-03-03T10:04:10;1.20;99.90
59282;DHT22;45054;52.062;10.010;2023-03-03T10:06:37;1.20;99.90
59282;DHT22;45054;52.062;10.010;2023-03-03T10:11:47;1.20;99.90
59282;DHT22;45054;52.062;10.010;2023-03-03T10:14:20;1.00;99.90
59282;DHT22;45054;52.062;10.010;2023-03-03T10:16:56;1.20;99.90
59282;DHT22;45054;52.062;10.010;2023-03-03T10:19:26;1.20;99.90
59282;DHT22;45054;52.062;10.010;2023-03-03T10:21:56;1.30;99.90
59282;DHT22;45054;52.062;10.010;2023-03-03T10:24:25;1.40;99.90
59282;DHT22;45054;52.062;10.010;2023-03-03T10:26:57;1.40;99.90
59282;DHT22;45054;52.062;10.010;2023-03-03T10:29:28;1.40;99.90
59282;DHT22;45054;52.062;10.010;2023-03-03T10:32:00;1.50;99.90
59282;DHT22;45054;52.062;10.010;2023-03-03T10:34:43;1.60;99.90
59282;DHT22;45054;52.062;10.010;2023-03-03T10:37:15;1.70;99.90
59282;DHT22;45054;52.062;10.010;2023-03-03T10:39:46;1.80;99.90
59282;DHT22;45054;52.062;10.010;2023-03-03T10:42:16;1.90;99.90
59282;DHT22;45054;52.062;10.010;2023-03-03T10:50:22;1.90;99.90
59282;DHT22;45054;52.062;10.010;2023-03-03T10:52:51;2.00;99.90
59282;DHT22;45054;52.062;10.010;2023-03-03T10:55:28;2.10;99.90
59282;DHT22;45054;52.062;10.010;2023-03-03T10:57:59;2.10;99.90
59282;DHT22;45054;52.062;10.010;2023-03-03T11:00:28;2.20;99.90
59282;DHT22;45054;52.062;10.010;2023-03-03T11:03:01;2.20;99.90
59282;DHT22;45054;52.062;10.010;2023-03-03T11:05:33;2.30;99.90
59282;DHT22;45054;52.062;10.010;2023-03-03T11:08:02;2.30;99.90
59282;DHT22;45054;52.062;10.010;2023-03-03T11:10:34;2.10;99.90
59282;DHT22;45054;52.062;10.010;2023-03-03T11:13:04;2.10;99.90
59282;DHT22;45054;52.062;10.010;2023-03-03T11:15:34;2.10;99.90
59282;DHT22;45054;52.062;10.010;2023-03-03T11:18:10;2.10;99.90
59282;DHT22;45054;52.062;10.010;2023-03-03T11:20:41;2.10;99.90
59282;DHT22;45054;52.062;10.010;2023-03-03T11:23:20;2.00;99.90
59282;DHT22;45054;52.062;10.010;2023-03-03T11:25:52;2.10;99.90
59282;DHT22;45054;52.062;10.010;2023-03-03T11:28:24;2.30;99.90
59282;DHT22;45054;52.062;10.010;2023-03-03T11:31:02;2.40;99.90
59282;DHT22;45054;52.062;10.010;2023-03-03T11:33:31;2.40;99.90
59282;DHT22;45054;52.062;10.010;2023-03-03T11:36:03;2.50;99.90
59282;DHT22;45054;52.062;10.010;2023-03-03T11:38:34;2.50;99.90
59282;DHT22;45054;52.062;10.010;2023-03-03T11:41:05;2.20;99.90
59282;DHT22;45054;52.062;10.010;2023-03-03T11:43:33;2.00;99.90
59282;DHT22;45054;52.062;10.010;2023-03-03T11:46:02;1.90;99.90
59282;DHT22;45054;52.062;10.010;2023-03-03T11:48:31;1.90;99.90
59282;DHT22;45054;52.062;10.010;2023-03-03T11:50:57;2.10;99.90
59282;DHT22;45054;52.062;10.010;2023-03-03T11:53:28;2.20;99.90
59282;DHT22;45054;52.062;10.010;2023-03-03T11:55:57;2.20;99.90
59282;DHT22;45054;52.062;10.010;2023-03-03T11:58:26;2.40;99.90
59282;DHT22;45054;52.062;10.010;2023-03-03T12:00:53;2.50;99.90
59282;DHT22;45054;52.062;10.010;2023-03-03T12:03:24;2.40;99.90
59282;DHT22;45054;52.062;10.010;2023-03-03T12:05:56;2.50;99.90
59282;DHT22;45054;52.062;10.010;2023-03-03T12:08:41;2.60;99.90
59282;DHT22;45054;52.062;10.010;2023-03-03T12:11:10;2.60;99.90
59282;DHT22;45054;52.062;10.010;2023-03-03T12:13:43;2.60;99.90
59282;DHT22;45054;52.062;10.010;2023-03-03T12:16:11;2.60;99.90
59282;DHT22;45054;52.062;10.010;2023-03-03T12:18:45;2.50;99.90
59282;DHT22;45054;52.062;10.010;2023-03-03T12:21:19;2.50;99.90
59282;DHT22;45054;52.062;10.010;2023-03-03T12:23:54;2.60;99.90
59282;DHT22;45054;52.062;10.010;2023-03-03T12:26:24;2.60;99.90
59282;DHT22;45054;52.062;10.010;2023-03-03T12:28:52;2.50;99.90
59282;DHT22;45054;52.062;10.010;2023-03-03T12:31:30;2.50;99.90
59282;DHT22;45054;52.062;10.010;2023-03-03T12:33:57;2.50;99.90
59282;DHT22;45054;52.062;10.010;2023-03-03T12:39:06;2.50;99.90
59282;DHT22;45054;52.062;10.010;2023-03-03T12:41:35;2.70;99.90
59282;DHT22;45054;52.062;10.010;2023-03-03T12:44:05;2.80;99.90
59282;DHT22;45054;52.062;10.010;2023-03-03T12:46:34;2.90;99.90
59282;DHT22;45054;52.062;10.010;2023-03-03T12:49:06;2.80;99.90
59282;DHT22;45054;52.062;10.010;2023-03-03T12:51:36;2.90;99.90
59282;DHT22;45054;52.062;10.010;2023-03-03T12:54:12;2.80;99.90
59282;DHT22;45054;52.062;10.010;2023-03-03T12:56:39;2.70;99.90
59282;DHT22;45054;52.062;10.010;2023-03-03T12:59:07;2.60;99.90
59282;DHT22;45054;52.062;10.010;2023-03-03T13:01:38;2.40;99.90
59282;DHT22;45054;52.062;10.010;2023-03-03T13:04:07;2.40;99.90
59282;DHT22;45054;52.062;10.010;2023-03-03T13:06:35;2.50;99.90
59282;DHT22;45054;52.062;10.010;2023-03-03T13:09:12;2.50;99.90
59282;DHT22;45054;52.062;10.010;2023-03-03T13:11:41;2.70;99.90
59282;DHT22;45054;52.062;10.010;2023-03-03T13:14:12;2.80;99.90
59282;DHT22;45054;52.062;10.010;2023-03-03T13:16:41;2.90;99.90
59282;DHT22;45054;52.062;10.010;2023-03-03T13:19:08;2.90;99.90
59282;DHT22;45054;52.062;10.010;2023-03-03T13:21:36;3.00;99.90
59282;DHT22;45054;52.062;10.010;2023-03-03T13:24:06;2.90;99.90
59282;DHT22;45054;52.062;10.010;2023-03-03T13:26:40;2.80;99.90
59282;DHT22;45054;52.062;10.010;2023-03-03T13:29:08;2.70;99.90
59282;DHT22;45054;52.062;10.010;2023-03-03T13:31:36;2.70;99.90
59282;DHT22;45054;52.062;10.010;2023-03-03T13:34:03;2.80;99.90
59282;DHT22;45054;52.062;10.010;2023-03-03T13:36:30;2.90;99.90
59282;DHT22;45054;52.062;10.010;2023-03-03T13:38:59;2.80;99.90
59282;DHT22;45054;52.062;10.010;2023-03-03T13:41:26;2.80;99.90
59282;DHT22;45054;52.062;10.010;2023-03-03T13:43:56;2.70;99.90
59282;DHT22;45054;52.062;10.010;2023-03-03T13:46:26;2.60;99.90
59282;DHT22;45054;52.062;10.010;2023-03-03T13:49:01;2.60;99.90
59282;DHT22;45054;52.062;10.010;2023-03-03T13:51:30;2.40;99.90
59282;DHT22;45054;52.062;10.010;2023-03-03T13:53:58;2.50;99.90
59282;DHT22;45054;52.062;10.010;2023-03-03T13:56:30;2.60;99.90
59282;DHT22;45054;52.062;10.010;2023-03-03T13:59:01;2.60;99.90
59282;DHT22;45054;52.062;10.010;2023-03-03T14:01:31;2.70;99.90
59282;DHT22;45054;52.062;10.010;2023-03-03T14:04:00;2.80;99.90
59282;DHT22;45054;52.062;10.010;2023-03-03T14:06:29;2.90;99.90
59282;DHT22;45054;52.062;10.010;2023-03-03T14:08:59;3.00;99.90
59282;DHT22;45054;52.062;10.010;2023-03-03T14:11:28;3.10;99.90
59282;DHT22;45054;52.062;10.010;2023-03-03T14:13:57;3.10;99.90
59282;DHT22;45054;52.062;10.010;2023-03-03T14:16:31;3.10;99.90
59282;DHT22;45054;52.062;10.010;2023-03-03T14:18:58;3.20;99.90
59282;DHT22;45054;52.062;10.010;2023-03-03T14:21:27;3.20;99.90
59282;DHT22;45054;52.062;10.010;2023-03-03T14:23:56;3.20;99.90
59282;DHT22;45054;52.062;10.010;2023-03-03T14:26:23;3.10;99.90
59282;DHT22;45054;52.062;10.010;2023-03-03T14:28:49;3.20;99.90
59282;DHT22;45054;52.062;10.010;2023-03-03T14:31:20;3.30;99.90
59282;DHT22;45054;52.062;10.010;2023-03-03T14:33:56;3.30;99.90
59282;DHT22;45054;52.062;10.010;2023-03-03T14:36:24;3.30;99.90
59282;DHT22;45054;52.062;10.010;2023-03-03T14:38:50;3.40;99.90
59282;DHT22;45054;52.062;10.010;2023-03-03T14:41:20;3.40;99.90
59282;DHT22;45054;52.062;10.010;2023-03-03T14:43:54;3.40;99.90
59282;DHT22;45054;52.062;10.010;2023-03-03T14:49:03;3.40;99.90
59282;DHT22;45054;52.062;10.010;2023-03-03T14:51:30;3.30;99.90
59282;DHT22;45054;52.062;10.010;2023-03-03T14:53:57;3.30;99.90
59282;DHT22;45054;52.062;10.010;2023-03-03T14:56:23;3.20;99.90
59282;DHT22;45054;52.062;10.010;2023-03-03T14:58:49;3.20;99.90
59282;DHT22;45054;52.062;10.010;2023-03-03T15:01:20;3.10;99.90
59282;DHT22;45054;52.062;10.010;2023-03-03T15:03:47;3.10;99.90
59282;DHT22;45054;52.062;10.010;2023-03-03T15:06:25;3.10;99.90
59282;DHT22;45054;52.062;10.010;2023-03-03T15:08:52;3.20;99.90
59282;DHT22;45054;52.062;10.010;2023-03-03T15:11:19;3.10;99.90
59282;DHT22;45054;52.062;10.010;2023-03-03T15:13:44;3.10;99.90
59282;DHT22;45054;52.062;10.010;2023-03-03T15:16:11;3.10;99.90
59282;DHT22;45054;52.062;10.010;2023-03-03T15:18:53;3.10;99.90
59282;DHT22;45054;52.062;10.010;2023-03-03T15:21:21;3.10;99.90
59282;DHT22;45054;52.062;10.010;2023-03-03T15:23:50;3.10;99.90
59282;DHT22;45054;52.062;10.010;2023-03-03T15:26:20;2.90;99.90
59282;DHT22;45054;52.062;10.010;2023-03-03T15:28:52;2.90;99.90
59282;DHT22;45054;52.062;10.010;2023-03-03T15:31:21;2.90;99.90
59282;DHT22;45054;52.062;10.010;2023-03-03T15:33:53;3.10;99.90
59282;DHT22;45054;52.062;10.010;2023-03-03T15:36:25;3.00;99.90
59282;DHT22;45054;52.062;10.010;2023-03-03T15:38:54;3.10;99.90
59282;DHT22;45054;52.062;10.010;2023-03-03T15:41:25;3.20;99.90
59282;DHT22;45054;52.062;10.010;2023-03-03T15:43:54;3.40;99.90
59282;DHT22;45054;52.062;10.010;2023-03-03T15:46:24;3.40;99.90